Miller, NE (68858)

3:13 AM CDT on July 02, 2015 (GMT -0500)
Sumner | | Change Station
CLOSE
Current Station
Personal Weather Station
Location: Sumner, NE
Elevation: 2411 ft
Nearby Weather Stations

Elev 2411 ft 40.97 °N, 99.58 °W | Updated 41 minutes ago

Clear
Clear
64.2 °F
Feels Like 64.2 °F
N
0.0
Wind Variable Wind from West
Gusts 2.0 mph

Today
High -- | Low -- °F
--% Chance of Precip.
Yesterday
High -- | Low -- °F
Precip. -- in
6:09 AM 9:13 PM
Full, 100% visible
Pressure 29.93 in
Visibility 5.0 miles
Clouds Mostly Cloudy 900 ft
Dew Point 62 °F
Humidity 94%
Rainfall 0.00 in
Snow Depth Not available.
UV 0 out of 12
Pollen 3.10 out of 12
Air Quality Not available.
Flu Activity Not available.
METAR KEAR 020755Z AUTO 08004KT 5SM BKN009 21/19 A2993 RMK AO1

More Conditions Fewer Conditions

Pressure 29.93 in
Visibility 5.0 miles
Clouds Mostly Cloudy 900 ft
Dew Point 62 °F
Humidity 94%
Rainfall 0.00 in
Snow Depth Not available.
UV 0 out of 12
Pollen 3.10 out of 12
Air Quality Not available.
Flu Activity Not available.
METAR KEAR 020755Z AUTO 08004KT 5SM BKN009 21/19 A2993 RMK AO1

More Conditions Fewer Conditions

10-Day Weather Forecast

×

Almanac

Astronomy

Jul. 02, 2015 Rise Set
Actual Time
Civil Twilight
Nautical Twilight
Astronomical Twilight
Moon
Length of Visible Light
Length of Day
Tomorrow will be .
, % of the Moon is Illuminated

Today's Extremes

State Highs State Lows

Community

WunderPhotos

Upload Photos

1,834,423 photos uploaded!

WunderBlogs® & News

Nearby

Air Quality

  Air Quality AQ Index Pollutant
Not available.

Snow Depth

Station Depth Elevation

Earthquake Activity

City Distance Mag. Time & Date
Minimum magnitude displayed is 2.5.

Coastal Water Temperatures

Place Temperature

Stations

Nearby Weather Stations

Station Location Temp. Windchill Dew Point Humidity Wind Precip. Elev Updated Type